createdAt,value
2022-12-09T00:01:31.945Z,96.32
2022-12-09T00:04:56.788Z,96.06
2022-12-09T00:08:19.210Z,96.39
2022-12-09T00:11:42.773Z,95.95
2022-12-09T00:15:05.070Z,95.77
2022-12-09T00:18:27.027Z,96.15
2022-12-09T00:21:50.747Z,95.79
2022-12-09T00:25:12.590Z,95.84
2022-12-09T00:28:34.781Z,95.77
2022-12-09T00:31:57.360Z,95.58
2022-12-09T00:35:19.187Z,95.82
2022-12-09T00:38:43.084Z,96.19
2022-12-09T00:42:05.261Z,96.17
2022-12-09T00:45:27.013Z,95.75
2022-12-09T00:48:49.394Z,96.22
2022-12-09T00:52:11.279Z,96.48
2022-12-09T00:55:34.519Z,96.25
2022-12-09T00:58:56.895Z,96.16
2022-12-09T01:02:18.933Z,96.31
2022-12-09T01:05:41.309Z,96.34
2022-12-09T01:09:03.967Z,95.99
2022-12-09T01:12:27.299Z,96.02
2022-12-09T01:15:49.160Z,95.99
2022-12-09T01:19:15.267Z,96.22
2022-12-09T01:22:37.967Z,95.74
2022-12-09T01:26:00.004Z,95.98
2022-12-09T01:29:23.597Z,95.92
2022-12-09T01:32:47.046Z,96.14
2022-12-09T01:36:12.388Z,95.69
2022-12-09T01:39:34.417Z,96.08
2022-12-09T01:42:56.528Z,96.16
2022-12-09T01:46:19.837Z,96.08
2022-12-09T01:49:47.007Z,96.09
2022-12-09T01:53:11.406Z,95.95
2022-12-09T01:56:36.604Z,95.89
2022-12-09T01:59:59.017Z,95.94
2022-12-09T02:03:22.394Z,95.86
2022-12-09T02:06:45.047Z,95.62
2022-12-09T02:10:11.786Z,95.72
2022-12-09T02:13:44.479Z,95.99
2022-12-09T02:17:31.548Z,96.25
2022-12-09T02:20:59.881Z,96.17
2022-12-09T02:24:26.747Z,96.22
2022-12-09T02:27:57.067Z,96.21
2022-12-09T02:31:36.578Z,96.50
2022-12-09T02:35:06.798Z,96.41
2022-12-09T02:38:32.547Z,96.85
2022-12-09T02:41:55.931Z,96.29
2022-12-09T02:45:20.236Z,96.57
2022-12-09T02:48:48.189Z,96.38
2022-12-09T02:52:13.260Z,96.36
2022-12-09T02:55:37.507Z,96.72
2022-12-09T02:58:59.703Z,96.71
2022-12-09T03:02:28.910Z,96.78
2022-12-09T03:05:57.638Z,96.62
2022-12-09T03:09:27.361Z,96.73
2022-12-09T03:12:54.433Z,97.02
2022-12-09T03:16:24.007Z,96.91
2022-12-09T03:19:47.239Z,97.02
2022-12-09T03:23:12.823Z,96.85
2022-12-09T03:26:40.317Z,97.28
2022-12-09T03:30:05.587Z,97.11
2022-12-09T03:33:30.640Z,97.36
2022-12-09T03:36:54.413Z,97.18
2022-12-09T03:40:21.377Z,97.17
2022-12-09T03:43:52.458Z,97.21
2022-12-09T03:47:15.254Z,96.94
2022-12-09T03:50:45.660Z,97.21
2022-12-09T03:54:15.157Z,97.19
2022-12-09T03:57:39.888Z,96.91
2022-12-09T04:01:06.168Z,96.93
2022-12-09T04:04:29.581Z,97.17
2022-12-09T04:07:51.811Z,97.30
2022-12-09T04:11:13.830Z,97.06
2022-12-09T04:14:35.859Z,96.82
2022-12-09T04:17:59.380Z,96.44
2022-12-09T04:21:21.991Z,96.43
2022-12-09T04:24:44.118Z,96.32
2022-12-09T04:28:08.387Z,96.20
2022-12-09T04:31:30.239Z,95.96
2022-12-09T04:34:53.735Z,96.01
2022-12-09T04:38:16.174Z,96.00
2022-12-09T04:41:38.171Z,96.15
2022-12-09T04:45:00.209Z,95.90
2022-12-09T04:48:22.307Z,96.04
2022-12-09T04:51:45.177Z,96.29
2022-12-09T04:55:07.775Z,96.50
2022-12-09T04:58:30.534Z,96.28
2022-12-09T05:01:52.817Z,96.89
2022-12-09T05:05:14.949Z,96.77
2022-12-09T05:08:38.640Z,96.67
2022-12-09T05:12:01.098Z,96.40
2022-12-09T05:15:23.143Z,96.64
2022-12-09T05:18:45.982Z,96.59
2022-12-09T05:22:08.535Z,96.12
2022-12-09T05:25:34.540Z,96.31
2022-12-09T05:28:56.682Z,96.53
2022-12-09T05:32:20.759Z,96.92
2022-12-09T05:35:52.352Z,96.70
2022-12-09T05:39:14.756Z,96.83
2022-12-09T05:42:41.419Z,96.62
2022-12-09T05:46:04.956Z,96.87
2022-12-09T05:49:27.804Z,96.76
2022-12-09T05:52:50.062Z,96.94
2022-12-09T05:56:16.270Z,96.93
2022-12-09T05:59:40.311Z,96.83
2022-12-09T06:03:02.691Z,97.34
2022-12-09T06:06:28.308Z,97.27
2022-12-09T06:09:54.001Z,97.00
2022-12-09T06:13:16.485Z,97.28
2022-12-09T06:16:39.920Z,97.34
2022-12-09T06:20:01.789Z,97.67
2022-12-09T06:23:25.856Z,97.06
2022-12-09T06:26:48.253Z,97.17
2022-12-09T06:30:11.457Z,96.71
2022-12-09T06:33:54.387Z,97.02
2022-12-09T06:37:17.129Z,96.63
2022-12-09T06:40:42.529Z,96.76
2022-12-09T06:44:20.000Z,96.97
2022-12-09T06:47:46.800Z,96.87
2022-12-09T06:51:11.272Z,97.06
2022-12-09T06:54:34.148Z,96.60
2022-12-09T06:57:56.918Z,96.46
2022-12-09T07:01:22.991Z,96.63
2022-12-09T07:04:47.044Z,96.58
2022-12-09T10:16:10.600Z,94.00
2022-12-09T10:19:36.978Z,92.40
2022-12-09T10:23:02.056Z,92.58
2022-12-09T10:26:28.192Z,91.92
2022-12-09T10:29:59.512Z,92.00
2022-12-09T10:33:28.469Z,92.93
2022-12-09T10:36:51.301Z,92.10
2022-12-09T10:40:23.119Z,92.03
2022-12-09T10:43:45.953Z,91.39
2022-12-09T10:47:20.825Z,91.77
2022-12-09T10:50:45.617Z,91.94
2022-12-09T10:54:22.113Z,91.46
2022-12-09T10:57:44.611Z,91.59
2022-12-09T11:01:11.945Z,91.76
2022-12-09T11:04:36.500Z,92.23
2022-12-09T11:08:01.240Z,92.07
2022-12-09T11:11:42.034Z,91.90
2022-12-09T11:15:07.656Z,91.82
2022-12-09T11:18:33.092Z,92.08
2022-12-09T11:22:15.265Z,92.41
2022-12-09T11:25:39.197Z,93.48
2022-12-09T11:29:05.289Z,92.53
2022-12-09T11:32:27.698Z,92.60
2022-12-09T11:35:57.393Z,92.50
2022-12-09T11:39:29.023Z,92.75
2022-12-09T11:42:54.775Z,92.82
2022-12-09T11:46:24.377Z,93.29
2022-12-09T11:49:53.128Z,93.14
2022-12-09T11:53:27.619Z,93.71
2022-12-09T11:56:51.458Z,93.33
2022-12-09T12:00:20.454Z,93.26
2022-12-09T12:03:48.585Z,92.86
2022-12-09T12:07:17.396Z,92.94
2022-12-09T12:10:44.714Z,91.97
2022-12-09T12:14:15.097Z,92.32
2022-12-09T12:17:44.352Z,93.56
2022-12-09T12:21:20.063Z,92.77
2022-12-09T12:25:08.779Z,92.96
2022-12-09T12:28:57.281Z,92.44
2022-12-09T12:32:34.115Z,92.81
2022-12-09T12:36:07.086Z,93.26
2022-12-09T12:39:43.019Z,93.34
2022-12-09T12:43:39.274Z,93.96
2022-12-09T12:47:10.935Z,94.25
2022-12-09T12:50:49.958Z,95.16
2022-12-09T12:54:21.374Z,95.31
2022-12-09T12:57:53.199Z,95.67
2022-12-09T13:01:21.783Z,95.76
2022-12-09T13:04:49.307Z,95.38
2022-12-09T13:08:15.281Z,96.57
2022-12-09T13:11:48.773Z,95.36
2022-12-09T13:15:16.043Z,94.82
2022-12-09T13:18:40.539Z,94.30
2022-12-09T13:22:02.802Z,94.22
2022-12-09T13:25:37.058Z,94.56
2022-12-09T13:29:14.170Z,95.10
2022-12-09T13:32:59.875Z,95.17
2022-12-09T13:36:29.359Z,95.23
2022-12-09T13:39:58.046Z,95.77
2022-12-09T13:43:25.699Z,96.34
2022-12-09T13:46:49.524Z,96.48
2022-12-09T13:50:25.928Z,96.50
2022-12-09T13:53:52.556Z,96.24
2022-12-09T13:57:21.814Z,95.36
2022-12-09T14:00:49.491Z,95.34
2022-12-09T14:04:17.710Z,95.46
2022-12-09T14:07:44.198Z,95.81
2022-12-09T14:11:39.277Z,95.82
2022-12-09T14:15:02.728Z,95.94
2022-12-09T14:18:33.421Z,96.30
2022-12-09T14:22:28.805Z,96.31
2022-12-09T14:26:04.731Z,96.07
2022-12-09T14:29:49.353Z,95.96
2022-12-09T14:33:23.225Z,96.24
2022-12-09T14:36:54.816Z,96.64
2022-12-09T14:40:27.303Z,96.82
2022-12-09T14:44:04.795Z,96.59
2022-12-09T14:47:29.912Z,96.24
2022-12-09T14:51:16.197Z,96.69
2022-12-09T14:54:43.022Z,96.92
2022-12-09T14:58:06.056Z,96.75
2022-12-09T15:01:29.694Z,96.40
2022-12-09T15:04:53.540Z,96.39
2022-12-09T15:08:29.005Z,96.53
2022-12-09T15:11:51.248Z,96.77
2022-12-09T15:15:16.877Z,96.78
2022-12-09T15:18:43.104Z,97.11
2022-12-09T15:22:08.021Z,96.96
2022-12-09T15:25:30.816Z,96.90
2022-12-09T15:28:55.441Z,97.32
2022-12-09T15:32:23.123Z,97.38
2022-12-09T15:35:53.784Z,97.62
2022-12-09T15:39:23.239Z,97.24
2022-12-09T15:42:47.215Z,97.40
2022-12-09T15:46:09.313Z,97.71
2022-12-09T15:49:35.973Z,97.81
2022-12-09T15:53:05.745Z,98.08
2022-12-09T15:56:33.267Z,98.46
2022-12-09T16:00:01.769Z,98.51
2022-12-09T16:03:27.242Z,98.30
2022-12-09T16:06:51.365Z,98.44
2022-12-09T16:10:16.688Z,98.45
2022-12-09T16:13:57.694Z,98.04
2022-12-09T16:17:23.804Z,98.25
2022-12-09T16:20:46.021Z,98.10
2022-12-09T16:24:13.013Z,98.30
2022-12-09T16:27:38.280Z,98.03
2022-12-09T16:31:04.259Z,98.15
2022-12-09T16:34:28.378Z,98.24
2022-12-09T16:38:17.855Z,98.50
2022-12-09T16:41:56.337Z,98.61
2022-12-09T16:45:29.975Z,98.49
2022-12-09T16:48:52.070Z,98.37
2022-12-09T16:52:15.975Z,98.67
2022-12-09T16:55:37.700Z,98.47
2022-12-09T16:59:00.395Z,98.74
2022-12-09T17:02:33.557Z,98.72
2022-12-09T17:05:55.801Z,98.29
2022-12-09T17:09:17.696Z,98.45
2022-12-09T17:12:40.303Z,97.96
2022-12-09T17:16:02.428Z,97.88
2022-12-09T17:19:27.922Z,97.53
2022-12-09T17:22:49.961Z,97.12
2022-12-09T17:26:14.185Z,96.81
2022-12-09T17:29:37.419Z,96.90
2022-12-09T17:32:59.927Z,96.24
2022-12-09T17:36:23.436Z,96.20
2022-12-09T17:39:46.348Z,96.03
2022-12-09T17:43:09.891Z,96.05
2022-12-09T17:46:32.800Z,95.72
2022-12-09T17:49:56.166Z,95.69
2022-12-09T17:53:20.080Z,95.86
2022-12-09T17:56:42.030Z,95.80
2022-12-09T18:00:04.489Z,95.56
2022-12-09T18:03:53.760Z,95.50
2022-12-09T18:07:08.489Z,95.01
2022-12-09T18:10:31.942Z,95.14
2022-12-09T18:13:54.776Z,94.84
2022-12-09T18:17:16.521Z,94.85
2022-12-09T18:20:41.196Z,94.24
2022-12-09T18:24:03.159Z,94.38
2022-12-09T18:27:26.478Z,95.03
2022-12-09T18:30:48.393Z,94.72
2022-12-09T18:34:10.380Z,94.66
2022-12-09T18:37:32.266Z,94.27
2022-12-09T18:41:03.465Z,94.14
2022-12-09T18:44:27.061Z,93.79
2022-12-09T18:47:49.001Z,93.06
2022-12-09T18:51:16.326Z,92.46
2022-12-09T18:54:38.135Z,92.83
2022-12-09T18:58:00.193Z,92.32
2022-12-09T19:01:25.541Z,92.07
2022-12-09T19:04:47.313Z,91.75
2022-12-09T19:08:10.079Z,91.15
2022-12-09T19:11:34.271Z,91.83
2022-12-09T19:15:00.170Z,91.66
2022-12-09T19:18:23.375Z,91.62
2022-12-09T19:21:46.199Z,91.18
2022-12-09T19:25:11.116Z,91.61
2022-12-09T19:28:32.871Z,90.59
2022-12-09T19:31:57.309Z,90.34
2022-12-09T19:35:20.857Z,90.04
2022-12-09T19:38:43.125Z,89.75
2022-12-09T19:42:06.154Z,90.16
2022-12-09T19:45:27.700Z,90.01
2022-12-09T19:48:49.967Z,89.96
2022-12-09T19:52:13.249Z,89.94
2022-12-09T19:55:35.961Z,90.61
2022-12-09T19:58:58.700Z,90.64
2022-12-09T20:02:20.879Z,90.72
2022-12-09T20:05:50.143Z,91.26
2022-12-09T20:09:17.919Z,91.20
2022-12-09T20:12:39.871Z,91.95
2022-12-09T20:16:05.498Z,91.85
2022-12-09T20:19:27.950Z,91.86
2022-12-09T20:22:49.860Z,92.25
2022-12-09T20:26:15.287Z,92.03
2022-12-09T20:29:38.384Z,91.75
2022-12-09T20:33:01.951Z,92.14
2022-12-09T20:36:25.853Z,92.27
2022-12-09T20:39:48.575Z,92.26
2022-12-09T20:43:12.871Z,92.21
2022-12-09T20:46:36.158Z,92.22
2022-12-09T20:49:58.733Z,92.57
2022-12-09T20:53:22.061Z,92.15
2022-12-09T20:56:45.020Z,92.75
2022-12-09T21:00:11.164Z,92.78
2022-12-09T21:03:34.386Z,92.57
2022-12-09T21:06:57.886Z,93.07
2022-12-09T21:10:20.952Z,93.08
2022-12-09T21:13:46.186Z,93.10
2022-12-09T21:17:11.588Z,92.92
2022-12-09T22:00:53.055Z,92.84
2022-12-09T22:04:17.900Z,92.17
2022-12-09T22:07:40.840Z,92.05
2022-12-09T22:11:02.999Z,92.33
2022-12-09T22:14:25.490Z,91.20
2022-12-09T22:17:47.626Z,91.29
2022-12-09T22:21:28.983Z,91.17
2022-12-09T22:24:51.201Z,90.85
2022-12-09T22:28:13.175Z,90.26
2022-12-09T22:31:37.558Z,89.85
2022-12-09T22:34:59.782Z,89.01
2022-12-09T22:38:22.763Z,89.06
2022-12-09T22:41:46.171Z,88.98
2022-12-09T22:45:08.584Z,89.64
2022-12-09T22:48:30.625Z,89.45
2022-12-09T22:51:56.416Z,88.89
2022-12-09T22:55:23.884Z,89.05
2022-12-09T22:58:45.887Z,88.92
2022-12-09T23:02:08.168Z,88.58
2022-12-09T23:05:34.751Z,88.14
2022-12-09T23:08:57.142Z,87.29
2022-12-09T23:12:20.438Z,85.97
2022-12-09T23:15:42.263Z,85.76
2022-12-09T23:19:04.402Z,85.35
2022-12-09T23:22:26.530Z,85.85
2022-12-09T23:25:48.473Z,86.42
2022-12-09T23:29:14.957Z,86.10
2022-12-09T23:32:37.356Z,86.43
2022-12-09T23:35:59.262Z,85.73
2022-12-09T23:39:23.096Z,85.21
2022-12-09T23:42:47.275Z,84.70
2022-12-09T23:46:15.684Z,85.62
2022-12-09T23:49:38.107Z,84.97
2022-12-09T23:52:59.908Z,84.35
2022-12-09T23:56:23.914Z,84.54
2022-12-09T23:59:45.727Z,84.60
